Weather at Malevo Airfield

Public forecast

Using degrees Celsius for public forecast. Weather courtesy of forecast.io.

Closest aviation weather report (METAR) to Malevo Airfield

Closest report is Plovdiv International Airport, 35.7 nm (66.0 km) WNW.

2024/06/22 06:00 (retrieved 25 minutes ago)

LBPD 220600Z AUTO 31007KT 260V340 9999 NCD 24/15 Q1015 NOSIG

Closest aviation forecast (TAF) to Malevo Airfield

Closest forecast is Plovdiv International Airport, 35.7 nm (66.0 km) WNW.

2024/06/22 06:18 (retrieved 7 minutes ago)

TAF LBPD 220500Z 2206/2306 VRB04KT CAVOK BECMG 2209/2211 13012KT BECMG 2222/2224 VRB04KT